createdAt,value
2018-12-26T00:00:23.547Z,26.9
2018-12-26T00:01:13.439Z,27.1
2018-12-26T00:02:04.070Z,27.3
2018-12-26T00:02:55.829Z,27.4
2018-12-26T00:03:43.652Z,27.3
2018-12-26T00:04:33.582Z,27.3
2018-12-26T00:05:24.787Z,27.3
2018-12-26T00:06:14.147Z,27.3
2018-12-26T00:07:04.222Z,27.4
2018-12-26T00:07:53.225Z,27.6
2018-12-26T00:09:36.378Z,28
2018-12-26T00:10:23.316Z,28.2
2018-12-26T00:11:13.434Z,28.3
2018-12-26T00:12:02.869Z,28.4
2018-12-26T00:12:52.719Z,28.5
2018-12-26T00:13:42.952Z,28.6
2018-12-26T00:14:34.082Z,28.8
2018-12-26T00:32:44.348Z,28.6
2018-12-26T00:33:34.578Z,28.5
2018-12-26T00:34:24.550Z,28.6
2018-12-26T00:35:14.075Z,28.7
2018-12-26T00:36:04.288Z,28.8
2018-12-26T00:36:54.172Z,28.9
2018-12-26T00:37:43.937Z,29
2018-12-26T00:38:34.277Z,29.1
2018-12-26T00:39:22.946Z,29.1
2018-12-26T00:40:13.557Z,29.2
2018-12-26T00:41:04.957Z,29.3
2018-12-26T00:41:54.484Z,29.3
2018-12-26T00:42:46.165Z,29.4
2018-12-26T00:43:34.779Z,29.4
2018-12-26T00:44:24.571Z,29.4
2018-12-26T00:45:14.902Z,29.5
2018-12-26T00:46:05.170Z,29.5
2018-12-26T00:46:55.572Z,29.5
2018-12-26T00:47:45.829Z,29.5
2018-12-26T00:48:35.976Z,29.6
2018-12-26T00:49:25.220Z,29.6
2018-12-26T00:50:15.806Z,29.6
2018-12-26T00:51:05.916Z,29.6
2018-12-26T00:51:55.534Z,29.6
2018-12-26T00:52:45.684Z,29.5
2018-12-26T00:53:35.581Z,29.4
2018-12-26T00:54:24.708Z,28.9
2018-12-26T00:55:15.534Z,28.5
2018-12-26T00:56:14.634Z,28.3
2018-12-26T00:56:56.354Z,28.1
2018-12-26T00:57:46.021Z,27.9
2018-12-26T00:58:36.446Z,27.9
2018-12-26T01:00:15.182Z,27.8
2018-12-26T01:01:06.479Z,27.7
2018-12-26T01:01:55.828Z,27.6
2018-12-26T01:02:45.849Z,27.6
2018-12-26T01:03:37.297Z,27.5
2018-12-26T01:04:26.425Z,27.3
2018-12-26T01:05:16.558Z,27.2
2018-12-26T01:06:05.263Z,27.3
2018-12-26T01:06:57.423Z,27.4
2018-12-26T01:07:47.451Z,27.4
2018-12-26T01:08:37.339Z,27.3
2018-12-26T01:09:25.951Z,27.3
2018-12-26T01:10:17.397Z,27.3
2018-12-26T01:11:06.228Z,27.3
2018-12-26T01:11:56.703Z,27.4
2018-12-26T01:12:46.957Z,27.7
2018-12-26T01:13:36.330Z,27.9
2018-12-26T01:14:27.525Z,28.1
2018-12-26T01:15:16.571Z,28.2
2018-12-26T01:16:07.245Z,28.3
2018-12-26T01:16:57.110Z,28.4
2018-12-26T01:17:46.554Z,28.6
2018-12-26T01:18:38.312Z,28.6
2018-12-26T01:19:26.400Z,28.7
2018-12-26T01:20:18.058Z,28.8
2018-12-26T01:21:06.430Z,28.8
2018-12-26T01:21:57.485Z,28.9
2018-12-26T01:22:46.427Z,28.9
2018-12-26T01:23:38.625Z,29
2018-12-26T01:24:27.779Z,29.1
2018-12-26T01:25:18.102Z,29.1
2018-12-26T01:26:08.234Z,29.2
2018-12-26T01:26:58.624Z,29.2
2018-12-26T01:27:48.584Z,29.3
2018-12-26T01:28:37.784Z,29.3
2018-12-26T01:29:27.777Z,29.3
2018-12-26T01:30:18.713Z,29.4
2018-12-26T01:31:08.864Z,29.4
2018-12-26T01:31:58.899Z,29.4
2018-12-26T01:32:47.522Z,29.4
2018-12-26T01:33:38.023Z,29.4
2018-12-26T01:34:28.976Z,29.5
2018-12-26T01:35:18.384Z,29.5
2018-12-26T01:36:07.847Z,29.6
2018-12-26T01:36:58.516Z,29.5
2018-12-26T01:37:48.974Z,29.5
2018-12-26T01:38:39.966Z,29.4
2018-12-26T01:39:29.659Z,29.3
2018-12-26T01:40:18.896Z,28.8
2018-12-26T01:41:09.813Z,28.4
2018-12-26T01:41:59.239Z,28.1
2018-12-26T01:42:49.426Z,28
2018-12-26T01:43:39.111Z,27.9
2018-12-26T01:45:19.058Z,27.8
2018-12-26T01:46:09.611Z,27.7
2018-12-26T01:46:58.868Z,27.6
2018-12-26T01:47:48.984Z,27.6
2018-12-26T01:48:38.666Z,27.5
2018-12-26T01:49:30.030Z,27.4
2018-12-26T01:50:19.024Z,27.2
2018-12-26T01:51:08.515Z,27.1
2018-12-26T01:52:00.221Z,27.2
2018-12-26T01:52:49.302Z,27.3
2018-12-26T01:53:40.891Z,27.3
2018-12-26T01:54:30.553Z,27.2
2018-12-26T01:55:19.908Z,27.2
2018-12-26T01:56:11.018Z,27.2
2018-12-26T01:57:00.810Z,27.2
2018-12-26T01:57:49.802Z,27.4
2018-12-26T01:58:40.679Z,27.6
2018-12-26T02:00:20.877Z,27.9
2018-12-26T02:01:11.257Z,28.1
2018-12-26T02:02:00.647Z,28.2
2018-12-26T02:02:50.402Z,28.3
2018-12-26T02:03:40.840Z,28.4
2018-12-26T02:04:29.700Z,28.5
2018-12-26T02:05:21.472Z,28.6
2018-12-26T02:06:10.658Z,28.7
2018-12-26T02:07:00.279Z,28.7
2018-12-26T02:07:51.425Z,28.8
2018-12-26T02:08:40.347Z,28.9
2018-12-26T02:09:31.801Z,28.9
2018-12-26T02:10:21.128Z,28.9
2018-12-26T02:11:10.229Z,29
2018-12-26T02:12:01.329Z,29.1
2018-12-26T02:12:50.287Z,29.1
2018-12-26T02:13:39.097Z,29.1
2018-12-26T02:14:31.785Z,29
2018-12-26T02:15:22.761Z,28.8
2018-12-26T02:16:10.746Z,28.6
2018-12-26T02:17:02.229Z,28.4
2018-12-26T02:17:51.185Z,28.8
2018-12-26T02:18:41.225Z,29.1
2018-12-26T02:19:31.701Z,28.7
2018-12-26T02:20:21.819Z,28.5
2018-12-26T02:21:11.176Z,28.3
2018-12-26T02:22:01.732Z,28.1
2018-12-26T02:22:52.183Z,28.1
2018-12-26T02:23:42.151Z,28.2
2018-12-26T02:24:31.617Z,28.3
2018-12-26T02:25:23.118Z,28.4
2018-12-26T02:26:12.936Z,28.6
2018-12-26T02:27:01.226Z,28.6
2018-12-26T02:27:52.486Z,28.7
2018-12-26T02:28:42.408Z,28.8
2018-12-26T02:29:31.103Z,28.9
2018-12-26T02:30:22.589Z,28.9
2018-12-26T02:31:12.232Z,29
2018-12-26T02:32:02.898Z,29.1
2018-12-26T02:32:51.509Z,29.1
2018-12-26T02:33:42.683Z,29.1
2018-12-26T02:34:32.687Z,29.2
2018-12-26T02:35:23.010Z,29.3
2018-12-26T02:36:12.033Z,29.3
2018-12-26T02:37:03.521Z,29.3
2018-12-26T02:37:53.245Z,29.4
2018-12-26T02:38:43.858Z,29.4
2018-12-26T02:39:33.568Z,29.4
2018-12-26T02:40:23.682Z,29.4
2018-12-26T02:41:13.552Z,29.4
2018-12-26T02:42:04.245Z,29.4
2018-12-26T02:42:53.458Z,29.4
2018-12-26T02:43:42.975Z,29.4
2018-12-26T02:44:33.289Z,29.4
2018-12-26T02:45:23.257Z,29.4
2018-12-26T02:46:13.497Z,29.4
2018-12-26T02:47:03.154Z,29.3
2018-12-26T02:47:53.320Z,29.3
2018-12-26T02:48:43.380Z,28.8
2018-12-26T02:49:34.984Z,28.3
2018-12-26T02:50:23.762Z,28.1
2018-12-26T02:51:14.089Z,27.9
2018-12-26T02:52:04.402Z,27.8
2018-12-26T02:52:53.135Z,27.7
2018-12-26T02:53:43.574Z,27.6
2018-12-26T02:54:35.173Z,27.4
2018-12-26T02:55:24.349Z,27.3
2018-12-26T02:56:14.333Z,27.4
2018-12-26T02:57:04.176Z,27.6
2018-12-26T02:57:54.256Z,27.6
2018-12-26T02:58:44.601Z,27.4
2018-12-26T02:59:34.438Z,27.3
2018-12-26T03:00:24.748Z,27.3
2018-12-26T03:01:13.792Z,27.4
2018-12-26T03:02:05.209Z,27.5
2018-12-26T03:02:55.436Z,27.7
2018-12-26T03:03:44.774Z,27.9
2018-12-26T03:04:34.403Z,28.1
2018-12-26T03:05:25.123Z,28.2
2018-12-26T03:06:14.413Z,28.3
2018-12-26T03:07:04.253Z,28.4
2018-12-26T03:07:55.165Z,28.5
2018-12-26T03:08:44.198Z,28.6
2018-12-26T03:09:34.295Z,28.7
2018-12-26T03:10:24.691Z,28.8
2018-12-26T03:11:14.783Z,28.8
2018-12-26T03:12:04.711Z,28.9
2018-12-26T03:12:56.106Z,28.9
2018-12-26T03:13:44.545Z,29
2018-12-26T03:14:35.449Z,29
2018-12-26T03:15:25.851Z,29.1
2018-12-26T03:16:15.287Z,29.1
2018-12-26T03:17:05.729Z,29.2
2018-12-26T03:17:55.402Z,29.2
2018-12-26T03:18:46.453Z,29.3
2018-12-26T03:19:36.114Z,29.3
2018-12-26T03:20:25.082Z,29.3
2018-12-26T03:21:16.673Z,29.4
2018-12-26T03:22:07.223Z,29.4
2018-12-26T03:22:55.637Z,29.4
2018-12-26T03:23:46.107Z,29.4
2018-12-26T03:24:36.877Z,29.4
2018-12-26T03:25:26.082Z,29.4
2018-12-26T03:26:16.460Z,29.4
2018-12-26T03:27:06.814Z,29.4
2018-12-26T03:27:56.252Z,29.4
2018-12-26T03:28:45.039Z,29.3
2018-12-26T03:29:36.764Z,29.3
2018-12-26T03:30:27.309Z,29.3
2018-12-26T03:31:16.600Z,29.2
2018-12-26T03:32:07.581Z,28.9
2018-12-26T03:32:57.504Z,28.4
2018-12-26T03:33:47.224Z,28.1
2018-12-26T03:34:37.273Z,27.9
2018-12-26T03:35:26.799Z,27.8
2018-12-26T03:36:17.543Z,27.7
2018-12-26T03:37:07.856Z,27.6
2018-12-26T03:37:57.574Z,27.3
2018-12-26T03:38:47.534Z,27.4
2018-12-26T03:39:36.161Z,27.5
2018-12-26T03:40:27.174Z,27.8
2018-12-26T03:41:16.994Z,27.4
2018-12-26T03:42:07.838Z,27.4
2018-12-26T03:42:57.096Z,27.3
2018-12-26T03:43:47.111Z,27.3
2018-12-26T03:44:37.071Z,27.4
2018-12-26T03:45:28.336Z,27.7
2018-12-26T03:46:17.228Z,27.9
2018-12-26T03:47:08.130Z,28
2018-12-26T03:47:57.731Z,28.2
2018-12-26T03:48:48.325Z,28.3
2018-12-26T03:49:38.904Z,28.4
2018-12-26T03:50:27.618Z,28.5
2018-12-26T03:51:17.913Z,28.6
2018-12-26T03:52:11.300Z,28.6
2018-12-26T03:52:58.943Z,28.6
2018-12-26T03:53:48.320Z,28.4
2018-12-26T03:54:38.407Z,28.1
2018-12-26T03:55:28.761Z,28
2018-12-26T03:56:17.800Z,27.9
2018-12-26T03:57:17.191Z,28
2018-12-26T03:57:56.967Z,28.1
2018-12-26T03:58:48.371Z,28.3
2018-12-26T03:59:39.333Z,28.1
2018-12-26T04:00:29.128Z,27.9
2018-12-26T04:02:09.356Z,27.6
2018-12-26T04:02:58.958Z,27.6
2018-12-26T04:03:48.729Z,27.7
2018-12-26T04:04:38.026Z,27.9
2018-12-26T04:05:28.312Z,28
2018-12-26T04:06:18.407Z,28.2
2018-12-26T04:07:08.554Z,28.3
2018-12-26T04:07:59.265Z,28.4
2018-12-26T04:08:48.844Z,28.5
2018-12-26T04:09:39.402Z,28.6
2018-12-26T04:10:29.245Z,28.6
2018-12-26T04:11:20.132Z,28.7
2018-12-26T04:12:09.657Z,28.8
2018-12-26T04:12:59.222Z,28.9
2018-12-26T04:13:49.188Z,28.9
2018-12-26T04:14:39.469Z,28.9
2018-12-26T04:15:28.881Z,29
2018-12-26T04:16:19.419Z,29.1
2018-12-26T04:17:09.599Z,29.1
2018-12-26T04:18:00.787Z,29.1
2018-12-26T04:18:49.835Z,29.2
2018-12-26T04:19:40.087Z,29.3
2018-12-26T04:20:29.795Z,29.3
2018-12-26T04:21:19.559Z,29.3
2018-12-26T04:22:08.814Z,29.3
2018-12-26T04:22:59.116Z,29.4
2018-12-26T04:23:49.560Z,29.4
2018-12-26T04:24:40.241Z,29.4
2018-12-26T04:25:30.660Z,29.4
2018-12-26T04:26:18.838Z,29.4
2018-12-26T04:27:20.030Z,29.3
2018-12-26T04:27:59.751Z,29.3
2018-12-26T04:28:49.707Z,29.3
2018-12-26T04:29:39.205Z,29.3
2018-12-26T04:30:30.964Z,29.3
2018-12-26T04:31:21.095Z,29.3
2018-12-26T04:32:10.303Z,29.2
2018-12-26T04:32:59.650Z,29.2
2018-12-26T04:33:49.798Z,28.7
2018-12-26T04:34:40.347Z,28.3
2018-12-26T04:35:30.082Z,28
2018-12-26T04:36:20.608Z,27.9
2018-12-26T04:37:11.382Z,27.8
2018-12-26T04:38:00.283Z,27.6
2018-12-26T04:38:50.393Z,27.4
2018-12-26T04:39:41.127Z,27.4
2018-12-26T04:40:30.338Z,27.8
2018-12-26T04:41:20.493Z,27.9
2018-12-26T04:42:10.866Z,27.6
2018-12-26T04:42:59.585Z,27.4
2018-12-26T04:43:53.595Z,27.4
2018-12-26T04:44:41.453Z,27.4
2018-12-26T05:02:03.774Z,29.2
2018-12-26T05:02:53.121Z,29.3
2018-12-26T05:03:42.824Z,29.3
2018-12-26T05:04:32.829Z,29.3
2018-12-26T05:05:23.855Z,29.4
2018-12-26T05:06:14.143Z,29.4
2018-12-26T05:07:02.877Z,29.4
2018-12-26T05:07:53.884Z,29.4
2018-12-26T05:08:44.162Z,29.3
2018-12-26T05:09:34.629Z,29.3
2018-12-26T05:10:23.636Z,29.3
2018-12-26T05:11:14.424Z,29.3
2018-12-26T05:12:06.246Z,29.3
2018-12-26T05:12:54.007Z,29.3
2018-12-26T05:13:44.559Z,29.2
2018-12-26T05:14:34.548Z,29.2
2018-12-26T05:15:24.279Z,29.2
2018-12-26T05:16:13.751Z,28.8
2018-12-26T05:17:04.051Z,28.5
2018-12-26T05:17:54.530Z,28.9
2018-12-26T05:18:43.836Z,28.7
2018-12-26T05:19:34.354Z,28.1
2018-12-26T05:20:24.263Z,27.9
2018-12-26T05:22:04.690Z,27.8
2018-12-26T05:22:54.748Z,27.9
2018-12-26T05:23:45.682Z,28.1
2018-12-26T05:24:34.538Z,28.2
2018-12-26T05:25:23.645Z,28.3
2018-12-26T05:26:14.677Z,28.3
2018-12-26T05:27:04.715Z,28.3
2018-12-26T05:27:56.721Z,28
2018-12-26T05:29:35.177Z,27.6
2018-12-26T05:30:25.520Z,27.6
2018-12-26T05:31:15.380Z,27.7
2018-12-26T05:32:05.809Z,27.9
2018-12-26T05:32:54.797Z,28
2018-12-26T05:33:46.259Z,28.3
2018-12-26T05:34:35.467Z,27.9
2018-12-26T05:35:25.622Z,27.8
2018-12-26T05:36:15.835Z,27.6
2018-12-26T05:37:05.104Z,27.4
2018-12-26T05:37:55.939Z,27.5
2018-12-26T05:38:46.341Z,27.6
2018-12-26T05:40:25.867Z,28
2018-12-26T05:41:15.966Z,28.1
2018-12-26T05:42:06.751Z,28.3
2018-12-26T05:42:56.226Z,28.3
2018-12-26T05:43:46.696Z,28.4
2018-12-26T05:44:35.301Z,28.6
2018-12-26T05:45:27.054Z,28.6
2018-12-26T05:46:16.518Z,28.7
2018-12-26T05:47:07.089Z,28.8
2018-12-26T05:47:57.020Z,28.8
2018-12-26T05:48:46.111Z,28.9
2018-12-26T05:49:37.614Z,28.9
2018-12-26T05:50:26.868Z,29
2018-12-26T05:51:16.910Z,29.1
2018-12-26T05:52:05.565Z,29.1
2018-12-26T05:52:57.418Z,29.1
2018-12-26T05:53:47.061Z,29.2
2018-12-26T05:54:36.776Z,29.2
2018-12-26T05:55:26.565Z,29.3
2018-12-26T05:56:17.188Z,29.3
2018-12-26T05:57:06.510Z,29.3
2018-12-26T05:57:55.966Z,29.4
2018-12-26T05:58:47.464Z,29.4
2018-12-26T05:59:37.750Z,29.4
2018-12-26T06:00:26.028Z,29.4
2018-12-26T06:01:16.423Z,29.4
2018-12-26T06:02:08.370Z,29.4
2018-12-26T06:02:57.600Z,29.4
2018-12-26T06:03:46.868Z,29.4
2018-12-26T06:04:37.837Z,29.4
2018-12-26T06:05:27.425Z,29.4
2018-12-26T06:06:18.245Z,29.4
2018-12-26T06:07:08.487Z,29.3
2018-12-26T06:07:57.727Z,28.8
2018-12-26T06:08:48.337Z,28.6
2018-12-26T06:09:37.812Z,28.4
2018-12-26T06:10:28.565Z,28.2
2018-12-26T06:11:18.500Z,28.1
2018-12-26T06:12:09.106Z,27.9
2018-12-26T06:12:59.617Z,27.6
2018-12-26T06:13:48.667Z,27.7
2018-12-26T06:14:37.999Z,27.9
2018-12-26T06:15:27.657Z,27.8
2018-12-26T06:16:17.979Z,27.5
2018-12-26T06:17:08.347Z,27.4
2018-12-26T06:17:59.004Z,27.4
2018-12-26T06:18:47.981Z,27.4
2018-12-26T06:19:38.176Z,27.6
2018-12-26T06:21:18.910Z,28
2018-12-26T06:22:08.660Z,28.1
2018-12-26T06:22:59.335Z,28.3
2018-12-26T06:23:48.703Z,28.3
2018-12-26T06:24:39.112Z,28.4
2018-12-26T06:25:28.691Z,28.6
2018-12-26T06:26:19.992Z,28.6
2018-12-26T06:27:09.351Z,28.7
2018-12-26T06:28:01.808Z,28.8
2018-12-26T06:28:49.289Z,28.8
2018-12-26T06:29:39.057Z,28.9
2018-12-26T06:30:28.866Z,28.9
2018-12-26T06:31:19.652Z,28.9
2018-12-26T06:32:09.049Z,29
2018-12-26T06:32:58.859Z,29.1
2018-12-26T06:33:49.451Z,29.1
2018-12-26T06:34:40.600Z,29.1
2018-12-26T06:35:30.439Z,29.2
2018-12-26T06:36:20.179Z,29.3
2018-12-26T06:37:09.659Z,29.3
2018-12-26T06:38:01.955Z,29.3
2018-12-26T06:38:50.814Z,29.3
2018-12-26T06:39:39.579Z,29.4
2018-12-26T06:40:30.731Z,29.4
2018-12-26T06:41:19.796Z,29.4
2018-12-26T06:42:10.016Z,29.5
2018-12-26T06:43:00.704Z,29.5
2018-12-26T06:43:50.818Z,29.5
2018-12-26T06:44:43.308Z,29.4
2018-12-26T06:45:29.391Z,29.4
2018-12-26T06:46:20.853Z,29.4
2018-12-26T06:47:11.209Z,29.4
2018-12-26T06:48:01.263Z,29.4
2018-12-26T06:48:51.113Z,29.4
2018-12-26T06:49:40.789Z,29.4
2018-12-26T06:50:30.476Z,29.4
2018-12-26T06:51:21.517Z,28.9
2018-12-26T06:52:10.728Z,28.6
2018-12-26T06:53:01.038Z,28.3
2018-12-26T06:53:50.916Z,28.2
2018-12-26T06:54:41.168Z,28.1
2018-12-26T06:55:31.225Z,27.8
2018-12-26T06:56:21.818Z,27.7
2018-12-26T06:58:10.590Z,27.9
2018-12-26T06:58:51.510Z,27.6
2018-12-26T06:59:41.961Z,27.6
2018-12-26T07:00:29.607Z,27.5
2018-12-26T07:01:21.823Z,27.5
2018-12-26T07:02:10.596Z,27.6
2018-12-26T07:03:51.905Z,27.9
2018-12-26T07:05:32.227Z,27.6
2018-12-26T07:06:21.468Z,27.4
2018-12-26T07:07:11.524Z,27.4
2018-12-26T07:08:01.797Z,27.4
2018-12-26T07:08:52.023Z,27.6
2018-12-26T07:09:42.543Z,27.8
2018-12-26T07:10:31.250Z,27.9
2018-12-26T07:11:23.152Z,27.8
2018-12-26T07:12:11.137Z,27.6
2018-12-26T07:13:01.672Z,27.5
2018-12-26T07:13:51.137Z,27.4
2018-12-26T07:14:42.877Z,27.4
2018-12-26T07:15:33.231Z,27.5
2018-12-26T07:16:25.039Z,27.7
2018-12-26T07:17:12.762Z,27.9
2018-12-26T07:18:02.459Z,28.1
2018-12-26T07:18:52.051Z,28.1
2018-12-26T07:19:43.154Z,28.3
2018-12-26T07:20:33.342Z,28.4
2018-12-26T07:21:22.114Z,28.5
2018-12-26T07:22:13.046Z,28.6
2018-12-26T07:23:03.471Z,28.7
2018-12-26T07:23:53.246Z,28.8
2018-12-26T07:24:42.521Z,28.8
2018-12-26T07:25:32.706Z,28.9
2018-12-26T07:26:23.019Z,28.9
2018-12-26T07:27:12.871Z,29
2018-12-26T07:28:12.669Z,29.1
2018-12-26T07:28:53.729Z,29.1
2018-12-26T07:29:43.058Z,29.1
2018-12-26T07:30:34.164Z,29.1
2018-12-26T07:31:23.414Z,29.2
2018-12-26T07:32:14.568Z,29.3
2018-12-26T07:33:03.778Z,29.3
2018-12-26T07:33:53.918Z,29.3
2018-12-26T07:34:52.099Z,29.4
2018-12-26T07:35:33.381Z,29.4
2018-12-26T07:36:24.418Z,29.4
2018-12-26T07:37:14.618Z,29.4
2018-12-26T07:38:03.848Z,29.4
2018-12-26T07:38:54.181Z,29.3
2018-12-26T07:39:45.005Z,29.4
2018-12-26T07:40:34.263Z,29.4
2018-12-26T07:41:23.410Z,29.4
2018-12-26T07:42:14.685Z,29.4
2018-12-26T07:43:04.352Z,29.3
2018-12-26T07:43:53.827Z,29.1
2018-12-26T07:44:44.835Z,28.7
2018-12-26T07:45:33.600Z,28.4
2018-12-26T07:46:24.485Z,28.3
2018-12-26T07:47:14.893Z,28.1
2018-12-26T07:48:04.329Z,27.9
2018-12-26T07:48:54.707Z,27.6
2018-12-26T07:49:45.643Z,27.7
2018-12-26T07:50:33.775Z,28
2018-12-26T07:51:24.820Z,27.8
2018-12-26T07:52:16.066Z,27.6
2018-12-26T07:53:04.938Z,27.4
2018-12-26T07:53:55.240Z,27.4
2018-12-26T07:54:46.090Z,27.5
2018-12-26T07:55:35.095Z,27.7
2018-12-26T07:56:25.959Z,27.9
2018-12-26T07:57:15.557Z,28
2018-12-26T07:58:05.734Z,28.2
2018-12-26T07:58:54.991Z,28.3
2018-12-26T07:59:47.540Z,28.4
2018-12-26T08:00:36.404Z,28.5
2018-12-26T08:01:26.724Z,28.6
2018-12-26T08:02:15.500Z,28.7
2018-12-26T08:03:06.484Z,28.8
2018-12-26T08:03:54.907Z,28.8
2018-12-26T08:04:46.321Z,28.9
2018-12-26T08:05:35.784Z,28.9
2018-12-26T08:06:26.744Z,29
2018-12-26T08:07:15.591Z,29
2018-12-26T08:08:06.599Z,29.1
2018-12-26T08:08:55.984Z,29.1
2018-12-26T08:09:45.756Z,29.2
2018-12-26T08:10:36.117Z,29.3
2018-12-26T08:11:26.714Z,29.3
2018-12-26T08:12:15.906Z,29.3
2018-12-26T08:13:05.694Z,29.4
2018-12-26T08:13:56.358Z,29.4
2018-12-26T08:14:45.843Z,29.4
2018-12-26T08:15:35.823Z,29.4
2018-12-26T08:16:26.455Z,29.4
2018-12-26T08:17:17.221Z,29.4
2018-12-26T08:18:07.548Z,29.4
2018-12-26T08:18:56.955Z,29.4
2018-12-26T08:19:46.683Z,29.4
2018-12-26T08:20:36.856Z,29.4
2018-12-26T08:21:27.127Z,29.1
2018-12-26T08:22:17.221Z,28.7
2018-12-26T08:23:07.778Z,28.4
2018-12-26T08:23:57.936Z,28.3
2018-12-26T08:24:47.601Z,28.1
2018-12-26T08:25:38.359Z,28
2018-12-26T08:26:26.110Z,27.6
2018-12-26T08:27:17.758Z,27.7
2018-12-26T08:28:07.065Z,28
2018-12-26T08:28:57.329Z,28
2018-12-26T08:29:46.833Z,27.7
2018-12-26T08:30:37.250Z,27.6
2018-12-26T08:31:27.190Z,27.5
2018-12-26T08:32:17.968Z,27.5
2018-12-26T08:33:08.133Z,27.6
2018-12-26T08:33:57.967Z,27.9
2018-12-26T08:34:47.597Z,28
2018-12-26T08:35:38.322Z,28.2
2018-12-26T08:36:28.599Z,28.3
2018-12-26T08:37:17.419Z,28.4
2018-12-26T08:38:08.902Z,28.6
2018-12-26T08:38:58.584Z,28.6
2018-12-26T08:39:49.019Z,28.7
2018-12-26T08:40:38.677Z,28.8
2018-12-26T08:41:28.662Z,28.8
2018-12-26T08:42:19.059Z,28.8
2018-12-26T08:43:08.069Z,28.6
2018-12-26T08:43:58.795Z,28.3
2018-12-26T08:44:47.586Z,28.2
2018-12-26T08:45:37.743Z,28.3
2018-12-26T08:46:29.177Z,28.8
2018-12-26T08:47:19.386Z,28.9
2018-12-26T08:48:09.766Z,28.4
2018-12-26T08:48:59.219Z,28.3
2018-12-26T08:49:49.076Z,28.1
2018-12-26T08:50:39.654Z,27.9
2018-12-26T08:51:29.699Z,27.9
2018-12-26T08:52:34.488Z,28
2018-12-26T08:53:08.431Z,28.3
2018-12-26T08:53:59.826Z,28.3
2018-12-26T08:54:49.094Z,28.4
2018-12-26T08:55:40.011Z,28.6
2018-12-26T08:56:28.829Z,28.7
2018-12-26T08:57:20.458Z,28.8
2018-12-26T08:58:09.478Z,28.9
2018-12-26T08:59:01.228Z,28.9
2018-12-26T08:59:48.655Z,29
2018-12-26T09:00:39.500Z,29.1
2018-12-26T09:17:23.697Z,27.6
2018-12-26T09:18:14.159Z,27.4
2018-12-26T09:19:04.373Z,27.9
2018-12-26T09:19:54.565Z,28.4
2018-12-26T09:21:33.829Z,27.6
2018-12-26T09:22:24.311Z,27.5
2018-12-26T09:23:16.411Z,27.4
2018-12-26T09:24:04.952Z,27.6
2018-12-26T09:24:53.989Z,27.7
2018-12-26T09:25:43.736Z,27.9
2018-12-26T09:26:33.950Z,28.1
2018-12-26T09:27:24.648Z,28.2
2018-12-26T09:28:12.863Z,28.3
2018-12-26T09:29:04.551Z,28.4
2018-12-26T09:29:56.353Z,28.5
2018-12-26T09:30:44.681Z,28.6
2018-12-26T09:31:34.188Z,28.7
2018-12-26T09:32:24.370Z,28.8
2018-12-26T09:33:14.250Z,28.9
2018-12-26T09:34:04.210Z,28.9
2018-12-26T09:34:54.520Z,29
2018-12-26T09:35:45.640Z,29.1
2018-12-26T09:36:35.360Z,29.1
2018-12-26T09:37:25.037Z,29.2
2018-12-26T09:38:14.602Z,29.2
2018-12-26T09:39:04.623Z,29.3
2018-12-26T09:39:55.233Z,29.3
2018-12-26T09:40:45.302Z,29.3
2018-12-26T09:41:35.204Z,29.3
2018-12-26T09:42:26.064Z,29.3
2018-12-26T09:43:15.497Z,29.3
2018-12-26T09:44:05.833Z,29.4
2018-12-26T09:45:04.362Z,29.4
2018-12-26T09:45:45.127Z,29.5
2018-12-26T09:46:35.504Z,29.5
2018-12-26T09:47:26.435Z,29.4
2018-12-26T09:48:15.832Z,28.8
2018-12-26T09:49:05.349Z,28.5
2018-12-26T09:49:56.006Z,28.3
2018-12-26T09:50:45.474Z,28.1
2018-12-26T09:51:36.608Z,28.1
2018-12-26T09:53:16.206Z,27.6
2018-12-26T09:54:05.591Z,27.9
2018-12-26T09:54:57.839Z,28.6
2018-12-26T09:56:35.861Z,27.6
2018-12-26T09:57:27.198Z,27.4
2018-12-26T09:58:16.417Z,27.4
2018-12-26T09:59:06.578Z,27.4
2018-12-26T09:59:55.508Z,27.6
2018-12-26T10:01:36.038Z,28
2018-12-26T10:02:26.326Z,28.2
2018-12-26T10:03:16.188Z,28.3
2018-12-26T10:04:06.626Z,28.4
2018-12-26T10:04:57.595Z,28.5
2018-12-26T10:05:47.242Z,28.6
2018-12-26T10:06:37.138Z,28.7
2018-12-26T10:07:26.975Z,28.8
2018-12-26T10:08:18.430Z,28.8
2018-12-26T10:09:07.502Z,28.9
2018-12-26T10:09:55.988Z,28.9
2018-12-26T10:10:47.141Z,29
2018-12-26T10:11:37.303Z,29.1
2018-12-26T10:12:27.885Z,29.1
2018-12-26T10:13:17.355Z,29.2
2018-12-26T10:14:06.842Z,29.3
2018-12-26T10:14:57.173Z,29.3
2018-12-26T10:15:47.787Z,29.3
2018-12-26T10:16:37.270Z,29.3
2018-12-26T10:17:27.961Z,29.3
2018-12-26T10:18:16.800Z,29.3
2018-12-26T10:19:07.148Z,29.3
2018-12-26T10:20:00.215Z,29.4
2018-12-26T10:20:48.587Z,29.4
2018-12-26T10:21:38.696Z,29.4
2018-12-26T10:22:28.629Z,29.4
2018-12-26T10:23:18.877Z,29.4
2018-12-26T10:24:09.261Z,29.1
2018-12-26T10:24:58.044Z,28.6
2018-12-26T10:25:48.853Z,28.3
2018-12-26T10:26:38.209Z,28.1
2018-12-26T10:27:29.066Z,28
2018-12-26T10:28:19.667Z,27.8
2018-12-26T10:29:11.095Z,27.6
2018-12-26T10:29:59.361Z,28
2018-12-26T10:30:47.874Z,28.4
2018-12-26T10:31:39.357Z,27.8
2018-12-26T10:32:28.025Z,27.5
2018-12-26T10:33:19.602Z,27.4
2018-12-26T10:34:10.046Z,27.4
2018-12-26T10:34:59.009Z,27.5
2018-12-26T10:35:49.082Z,27.7
2018-12-26T10:36:38.569Z,27.9
2018-12-26T10:38:18.811Z,27.7
2018-12-26T10:39:09.304Z,27.5
2018-12-26T10:40:00.084Z,27.3
2018-12-26T10:40:50.366Z,27.1
2018-12-26T10:41:40.133Z,27.1
2018-12-26T10:42:29.218Z,27.1
2018-12-26T10:43:20.126Z,27.4
2018-12-26T10:44:08.385Z,27.6
2018-12-26T10:44:58.901Z,27.8
2018-12-26T10:45:50.021Z,27.8
2018-12-26T10:46:39.918Z,27.5
2018-12-26T10:47:30.143Z,27.4
2018-12-26T10:48:20.288Z,27.2
2018-12-26T10:49:10.070Z,27.1
2018-12-26T10:50:00.353Z,27.2
2018-12-26T10:50:50.703Z,27.4
2018-12-26T10:51:40.538Z,27.6
2018-12-26T10:53:20.260Z,28
2018-12-26T10:54:10.117Z,28.1
2018-12-26T10:55:00.678Z,28.3
2018-12-26T10:55:50.960Z,28.4
2018-12-26T10:56:39.987Z,28.4
2018-12-26T10:57:30.864Z,28.6
2018-12-26T10:58:20.434Z,28.6
2018-12-26T10:59:19.280Z,28.7
2018-12-26T10:59:59.904Z,28.8
2018-12-26T11:00:51.604Z,28.9
2018-12-26T11:01:41.184Z,28.9
2018-12-26T11:02:30.638Z,29
2018-12-26T11:03:21.780Z,29.1
2018-12-26T11:04:11.279Z,29.1
2018-12-26T11:05:00.424Z,29.2
2018-12-26T11:05:50.612Z,29.2
2018-12-26T11:06:40.939Z,29.3
2018-12-26T11:07:31.819Z,29.3
2018-12-26T11:08:21.667Z,29.2
2018-12-26T11:09:10.294Z,29.3
2018-12-26T11:10:01.301Z,29.3
2018-12-26T11:10:52.604Z,29.4
2018-12-26T11:11:41.414Z,29.4
2018-12-26T11:12:31.399Z,29.4
2018-12-26T11:13:21.705Z,29.6
2018-12-26T11:14:11.759Z,29
2018-12-26T11:15:02.049Z,28.6
2018-12-26T11:15:52.381Z,28.3
2018-12-26T11:16:41.926Z,28.1
2018-12-26T11:17:32.664Z,28
2018-12-26T11:18:21.976Z,27.8
2018-12-26T11:19:12.759Z,27.5
2018-12-26T11:20:02.320Z,28.1
2018-12-26T11:20:52.051Z,28.7
2018-12-26T11:21:42.816Z,28.1
2018-12-26T11:22:32.228Z,27.6
2018-12-26T11:23:22.966Z,27.4
2018-12-26T11:24:11.606Z,27.4
2018-12-26T11:25:02.253Z,27.4
2018-12-26T11:25:52.346Z,27.6
2018-12-26T11:26:42.963Z,27.8
2018-12-26T11:27:32.993Z,27.9
2018-12-26T11:28:21.396Z,28.1
2018-12-26T11:29:20.706Z,28.3
2018-12-26T11:30:02.337Z,28.4
2018-12-26T11:30:52.118Z,28.4
2018-12-26T11:31:43.571Z,28.6
2018-12-26T11:32:32.766Z,28.6
2018-12-26T11:33:22.901Z,28.8
2018-12-26T11:34:13.381Z,28.8
2018-12-26T11:35:03.343Z,28.9
2018-12-26T11:35:52.654Z,28.9
2018-12-26T11:36:44.140Z,29
2018-12-26T11:37:32.875Z,29.1
2018-12-26T11:38:23.930Z,29.1
2018-12-26T11:39:13.697Z,29.2
2018-12-26T11:40:03.803Z,29.3
2018-12-26T11:40:53.523Z,29.3
2018-12-26T11:41:43.880Z,29.3
2018-12-26T11:42:33.156Z,29.4
2018-12-26T11:43:24.043Z,29.4
2018-12-26T11:44:14.222Z,29.5
2018-12-26T11:45:04.308Z,29.6
2018-12-26T11:45:53.401Z,29.6
2018-12-26T11:46:43.923Z,29.6
2018-12-26T11:47:34.320Z,29.7
2018-12-26T11:48:24.365Z,29.2
2018-12-26T11:49:14.416Z,28.7
2018-12-26T11:50:04.520Z,28.4
2018-12-26T11:50:54.519Z,28.2
2018-12-26T11:51:44.245Z,28.1
2018-12-26T11:52:34.287Z,27.9
2018-12-26T11:53:23.332Z,27.5
2018-12-26T11:55:05.574Z,28.5
2018-12-26T11:55:54.924Z,28.2
2018-12-26T11:56:43.758Z,27.7
2018-12-26T11:57:33.986Z,27.4
2018-12-26T11:58:23.394Z,27.3
2018-12-26T11:59:15.679Z,27.3
2018-12-26T12:00:05.261Z,27.5
2018-12-26T12:00:55.474Z,27.7
2018-12-26T12:01:44.227Z,27.9
2018-12-26T12:02:35.306Z,28.1
2018-12-26T12:03:24.867Z,28.2
2018-12-26T12:04:14.738Z,28.3
2018-12-26T12:05:05.911Z,28.4
2018-12-26T12:05:56.069Z,28.6
2018-12-26T12:06:45.341Z,28.6
2018-12-26T12:07:34.578Z,28.7
2018-12-26T12:08:25.474Z,28.8
2018-12-26T12:09:15.511Z,28.9
2018-12-26T12:10:05.225Z,28.9
2018-12-26T12:10:58.368Z,29
2018-12-26T12:11:45.420Z,29.1
2018-12-26T12:12:36.288Z,29.1
2018-12-26T12:13:25.782Z,29.2
2018-12-26T12:14:16.140Z,29.3